createdAt,value
2022-09-30T00:01:39.845Z,85.60
2022-09-30T00:04:14.741Z,85.48
2022-09-30T00:06:42.908Z,85.54
2022-09-30T00:09:13.088Z,85.59
2022-09-30T00:11:43.113Z,85.58
2022-09-30T00:14:17.288Z,85.86
2022-09-30T00:16:45.852Z,85.88
2022-09-30T00:19:15.835Z,85.86
2022-09-30T00:21:44.495Z,85.88
2022-09-30T00:24:12.740Z,85.45
2022-09-30T00:26:40.938Z,84.69
2022-09-30T00:29:09.228Z,84.76
2022-09-30T00:31:37.523Z,84.48
2022-09-30T00:34:09.043Z,84.60
2022-09-30T00:36:43.592Z,84.63
2022-09-30T00:39:14.773Z,84.59
2022-09-30T00:41:43.411Z,85.00
2022-09-30T00:44:57.011Z,85.34
2022-09-30T00:47:39.595Z,85.56
2022-09-30T00:50:35.157Z,85.61
2022-09-30T00:53:10.507Z,85.72
2022-09-30T00:55:47.463Z,85.58
2022-09-30T00:58:22.482Z,85.67
2022-09-30T01:00:52.068Z,85.90
2022-09-30T01:03:22.723Z,85.71
2022-09-30T01:05:52.327Z,85.75
2022-09-30T01:08:22.241Z,85.92
2022-09-30T01:10:50.665Z,85.73
2022-09-30T01:13:20.242Z,85.70
2022-09-30T01:16:07.399Z,86.29
2022-09-30T01:18:48.551Z,85.85
2022-09-30T01:21:58.834Z,84.71
2022-09-30T01:24:41.153Z,84.67
2022-09-30T01:27:23.816Z,84.93
2022-09-30T01:30:10.590Z,84.93
2022-09-30T01:32:50.882Z,84.97
2022-09-30T01:35:28.856Z,85.27
2022-09-30T01:38:04.787Z,85.55
2022-09-30T01:40:40.205Z,85.80
2022-09-30T01:43:15.205Z,86.02
2022-09-30T01:45:48.141Z,86.17
2022-09-30T01:48:22.318Z,86.31
2022-09-30T01:50:55.501Z,86.35
2022-09-30T01:53:28.235Z,86.28
2022-09-30T01:56:01.921Z,86.10
2022-09-30T01:58:40.105Z,86.03
2022-09-30T02:01:15.114Z,86.16
2022-09-30T02:03:49.263Z,85.84
2022-09-30T02:06:20.967Z,85.65
2022-09-30T02:08:52.880Z,85.68
2022-09-30T02:11:26.367Z,85.91
2022-09-30T02:14:01.350Z,85.93
2022-09-30T02:16:34.832Z,85.69
2022-09-30T02:19:12.465Z,85.75
2022-09-30T02:21:43.553Z,86.00
2022-09-30T02:24:18.429Z,86.19
2022-09-30T02:26:50.263Z,85.94
2022-09-30T02:29:24.146Z,85.71
2022-09-30T02:31:55.017Z,85.80
2022-09-30T02:34:27.768Z,86.09
2022-09-30T02:37:02.101Z,85.73
2022-09-30T02:39:35.648Z,85.81
2022-09-30T02:42:12.717Z,85.76
2022-09-30T02:44:41.002Z,85.89
2022-09-30T02:47:15.292Z,86.17
2022-09-30T02:49:50.940Z,86.60
2022-09-30T02:52:26.741Z,86.72
2022-09-30T02:55:06.395Z,86.70
2022-09-30T02:57:41.125Z,86.64
2022-09-30T03:00:12.917Z,86.61
2022-09-30T03:02:41.868Z,86.40
2022-09-30T03:05:12.500Z,86.25
2022-09-30T03:07:41.612Z,86.45
2022-09-30T03:10:14.750Z,86.43
2022-09-30T03:12:57.993Z,86.45
2022-09-30T03:15:43.233Z,86.35
2022-09-30T03:18:32.924Z,86.44
2022-09-30T03:21:10.084Z,86.92
2022-09-30T03:24:12.175Z,87.00
2022-09-30T03:26:48.905Z,87.18
2022-09-30T03:29:25.991Z,87.16
2022-09-30T03:32:03.968Z,87.22
2022-09-30T03:34:40.774Z,87.22
2022-09-30T03:37:20.235Z,86.97
2022-09-30T03:39:56.923Z,87.03
2022-09-30T03:42:29.180Z,87.09
2022-09-30T03:45:04.655Z,87.20
2022-09-30T03:47:36.639Z,87.22
2022-09-30T03:50:09.484Z,87.18
2022-09-30T03:52:39.563Z,87.13
2022-09-30T03:55:11.676Z,87.23
2022-09-30T03:57:40.034Z,87.16
2022-09-30T04:00:09.223Z,87.12
2022-09-30T04:02:38.287Z,87.38
2022-09-30T04:05:07.846Z,87.41
2022-09-30T04:07:36.517Z,87.36
2022-09-30T04:10:07.072Z,87.46
2022-09-30T04:12:35.275Z,87.37
2022-09-30T04:15:03.490Z,87.23
2022-09-30T04:17:32.004Z,87.34
2022-09-30T04:20:00.155Z,87.37
2022-09-30T04:22:28.378Z,87.32
2022-09-30T04:24:56.655Z,87.28
2022-09-30T04:27:26.774Z,87.22
2022-09-30T04:29:54.990Z,87.29
2022-09-30T04:32:25.781Z,87.48
2022-09-30T04:34:54.214Z,87.48
2022-09-30T04:37:22.478Z,87.09
2022-09-30T04:39:50.610Z,87.09
2022-09-30T04:42:19.271Z,87.12
2022-09-30T04:44:49.168Z,87.28
2022-09-30T04:47:17.262Z,87.18
2022-09-30T04:49:45.376Z,87.13
2022-09-30T04:52:13.477Z,87.46
2022-09-30T04:54:41.711Z,87.92
2022-09-30T04:57:10.418Z,87.61
2022-09-30T04:59:38.568Z,87.52
2022-09-30T05:02:10.458Z,87.37
2022-09-30T05:04:38.610Z,87.25
2022-09-30T05:07:08.936Z,87.19
2022-09-30T05:09:37.331Z,87.14
2022-09-30T05:12:05.830Z,87.28
2022-09-30T05:14:34.636Z,87.42
2022-09-30T05:17:03.196Z,87.42
2022-09-30T05:19:32.715Z,87.44
2022-09-30T05:22:00.948Z,87.51
2022-09-30T05:24:30.105Z,87.72
2022-09-30T05:26:58.273Z,87.64
2022-09-30T05:29:26.560Z,87.85
2022-09-30T05:31:54.757Z,88.06
2022-09-30T05:34:22.982Z,88.28
2022-09-30T05:36:53.184Z,88.16
2022-09-30T05:39:21.710Z,88.24
2022-09-30T05:41:50.030Z,88.21
2022-09-30T05:44:19.293Z,88.09
2022-09-30T05:46:48.116Z,87.97
2022-09-30T05:49:16.374Z,88.04
2022-09-30T05:51:44.955Z,88.16
2022-09-30T05:54:14.762Z,88.62
2022-09-30T05:56:42.872Z,88.52
2022-09-30T05:59:11.490Z,88.36
2022-09-30T06:01:39.857Z,88.54
2022-09-30T06:04:08.086Z,88.22
2022-09-30T06:06:36.277Z,87.99
2022-09-30T06:09:04.701Z,88.11
2022-09-30T06:11:35.024Z,87.99
2022-09-30T06:14:03.157Z,88.20
2022-09-30T06:16:32.144Z,88.38
2022-09-30T06:19:00.454Z,88.33
2022-09-30T06:21:29.118Z,87.99
2022-09-30T06:23:57.219Z,88.28
2022-09-30T06:26:25.378Z,88.04
2022-09-30T06:28:54.920Z,87.96
2022-09-30T06:31:23.327Z,88.04
2022-09-30T06:33:53.902Z,88.06
2022-09-30T06:36:22.284Z,88.11
2022-09-30T06:38:54.461Z,88.10
2022-09-30T06:41:24.544Z,88.18
2022-09-30T06:43:57.444Z,88.26
2022-09-30T06:46:31.232Z,87.87
2022-09-30T06:49:12.672Z,87.48
2022-09-30T06:51:42.424Z,87.49
2022-09-30T06:54:11.174Z,87.62
2022-09-30T06:56:39.409Z,87.20
2022-09-30T06:59:09.018Z,86.83
2022-09-30T07:01:37.156Z,86.73
2022-09-30T07:04:09.660Z,86.81
2022-09-30T07:06:38.946Z,86.48
2022-09-30T07:09:07.970Z,86.19
2022-09-30T07:11:37.750Z,86.30
2022-09-30T07:14:06.287Z,86.19
2022-09-30T07:16:35.877Z,86.11
2022-09-30T07:19:05.321Z,85.76
2022-09-30T07:21:33.627Z,85.61
2022-09-30T07:24:02.235Z,85.32
2022-09-30T07:26:31.194Z,85.16
2022-09-30T07:29:00.307Z,84.55
2022-09-30T07:31:34.055Z,84.57
2022-09-30T07:34:07.184Z,84.14
2022-09-30T07:36:37.848Z,83.73
2022-09-30T07:39:08.678Z,83.62
2022-09-30T07:41:39.047Z,82.86
2022-09-30T07:44:11.113Z,82.84
2022-09-30T07:46:40.516Z,82.23
2022-09-30T07:49:14.882Z,82.00
2022-09-30T07:51:45.573Z,81.79
2022-09-30T07:54:17.220Z,81.57
2022-09-30T07:59:37.337Z,80.95
2022-09-30T08:02:06.593Z,80.91
2022-09-30T08:04:40.339Z,80.88
2022-09-30T08:07:11.341Z,80.62
2022-09-30T08:09:39.704Z,80.48
2022-09-30T08:12:08.005Z,80.59
2022-09-30T08:14:36.487Z,80.56
2022-09-30T08:17:04.704Z,80.01
2022-09-30T08:19:35.317Z,80.34
2022-09-30T08:24:36.579Z,80.08
2022-09-30T08:27:05.307Z,79.75
2022-09-30T08:29:53.915Z,79.95
2022-09-30T08:32:21.596Z,80.36
2022-09-30T08:34:51.100Z,79.67
2022-09-30T08:37:19.225Z,79.56
2022-09-30T08:39:48.507Z,79.65
2022-09-30T08:42:40.275Z,79.33
2022-09-30T08:45:24.151Z,78.71
2022-09-30T08:47:59.757Z,78.15
2022-09-30T08:50:37.754Z,79.30
2022-09-30T08:53:12.057Z,78.92
2022-09-30T08:55:43.142Z,78.09
2022-09-30T08:58:19.463Z,77.78
2022-09-30T09:00:48.266Z,77.55
2022-09-30T09:03:20.457Z,77.05
2022-09-30T09:06:00.343Z,78.46
2022-09-30T09:08:39.329Z,77.31
2022-09-30T09:11:15.298Z,77.63
2022-09-30T09:13:52.389Z,77.44
2022-09-30T09:16:30.221Z,77.39
2022-09-30T09:19:03.612Z,77.21
2022-09-30T09:21:44.361Z,76.86
2022-09-30T09:24:17.362Z,76.44
2022-09-30T09:26:46.618Z,75.83
2022-09-30T09:29:28.938Z,75.52
2022-09-30T09:31:59.400Z,76.92
2022-09-30T09:34:28.166Z,75.79
2022-09-30T09:37:09.922Z,77.64
2022-09-30T09:40:04.721Z,75.06
2022-09-30T09:42:48.445Z,74.86
2022-09-30T09:45:27.681Z,75.89
2022-09-30T09:47:57.277Z,74.59
2022-09-30T09:50:35.978Z,76.10
2022-09-30T09:53:16.822Z,74.19
2022-09-30T09:55:45.509Z,75.50
2022-09-30T09:58:17.463Z,74.44
2022-09-30T10:01:07.569Z,74.33
2022-09-30T10:03:38.207Z,75.34
2022-09-30T10:06:09.348Z,73.88
2022-09-30T10:08:41.477Z,73.82
2022-09-30T10:11:21.660Z,73.99
2022-09-30T10:13:51.933Z,74.55
2022-09-30T10:16:35.482Z,74.67
2022-09-30T10:19:09.428Z,73.79
2022-09-30T10:21:38.041Z,72.94
2022-09-30T10:24:21.245Z,74.06
2022-09-30T10:26:49.490Z,72.64
2022-09-30T10:29:28.670Z,71.74
2022-09-30T10:31:59.875Z,72.64
2022-09-30T10:34:31.806Z,73.15
2022-09-30T10:37:08.389Z,73.45
2022-09-30T10:39:40.247Z,71.39
2022-09-30T10:42:12.907Z,70.00
2022-09-30T10:44:46.859Z,72.35
2022-09-30T10:47:17.367Z,72.31
2022-09-30T10:49:49.986Z,71.64
2022-09-30T10:52:22.176Z,69.30
2022-09-30T10:54:53.898Z,69.98
2022-09-30T10:57:24.915Z,72.53
2022-09-30T10:59:57.104Z,72.16
2022-09-30T11:02:31.934Z,72.93
2022-09-30T11:05:07.355Z,72.27
2022-09-30T11:07:43.919Z,69.18
2022-09-30T11:10:29.425Z,68.32
2022-09-30T11:13:05.490Z,69.02
2022-09-30T11:15:43.549Z,70.33
2022-09-30T11:18:20.074Z,71.42
2022-09-30T11:20:55.015Z,70.16
2022-09-30T11:23:28.772Z,70.03
2022-09-30T11:26:04.015Z,69.34
2022-09-30T11:28:48.975Z,67.33
2022-09-30T11:31:27.538Z,69.92
2022-09-30T11:34:24.888Z,69.57
2022-09-30T11:37:05.101Z,71.39
2022-09-30T11:39:57.415Z,72.66
2022-09-30T11:42:33.650Z,70.60
2022-09-30T11:45:10.195Z,67.58
2022-09-30T11:47:50.152Z,67.58
2022-09-30T11:50:31.112Z,68.57
2022-09-30T11:53:14.499Z,67.59
2022-09-30T11:56:02.661Z,68.12
2022-09-30T11:58:41.575Z,70.25
2022-09-30T12:01:21.257Z,69.77
2022-09-30T12:03:59.462Z,70.25
2022-09-30T12:06:33.526Z,69.13
2022-09-30T12:09:07.836Z,70.26
2022-09-30T12:11:42.679Z,68.92
2022-09-30T12:14:19.542Z,72.14
2022-09-30T12:16:56.681Z,67.33
2022-09-30T12:19:30.246Z,69.67
2022-09-30T12:22:05.118Z,69.49
2022-09-30T12:24:38.318Z,67.46
2022-09-30T12:27:16.054Z,66.63
2022-09-30T12:30:11.768Z,66.37
2022-09-30T12:33:27.419Z,69.79
2022-09-30T12:36:34.129Z,67.86
2022-09-30T12:39:45.723Z,66.50
2022-09-30T12:42:46.383Z,68.75
2022-09-30T12:45:36.805Z,67.95
2022-09-30T12:48:08.623Z,69.68
2022-09-30T12:50:43.115Z,69.92
2022-09-30T12:53:17.757Z,67.71
2022-09-30T12:55:46.790Z,69.03
2022-09-30T12:58:27.324Z,69.21
2022-09-30T13:01:06.969Z,68.67
2022-09-30T13:03:51.873Z,68.10
2022-09-30T13:06:22.485Z,67.65
2022-09-30T13:09:19.733Z,68.71
2022-09-30T13:11:49.218Z,68.30
2022-09-30T13:14:32.144Z,68.17
2022-09-30T13:17:21.081Z,69.22
2022-09-30T13:19:51.404Z,68.87
2022-09-30T13:22:56.239Z,68.17
2022-09-30T13:25:24.676Z,68.15
2022-09-30T13:27:55.536Z,65.62
2022-09-30T13:30:37.804Z,66.81
2022-09-30T13:33:29.348Z,70.84
2022-09-30T13:36:07.668Z,66.36
2022-09-30T13:38:39.267Z,70.13
2022-09-30T13:41:20.472Z,69.87
2022-09-30T13:44:03.570Z,69.71
2022-09-30T13:46:36.695Z,69.11
2022-09-30T13:49:13.765Z,67.49
2022-09-30T13:51:43.478Z,67.65
2022-09-30T13:54:23.571Z,70.32
2022-09-30T13:56:52.642Z,67.42
2022-09-30T13:59:38.456Z,70.69
2022-09-30T14:02:31.122Z,69.55
2022-09-30T14:05:22.899Z,70.01
2022-09-30T14:08:12.320Z,70.24
2022-09-30T14:10:57.275Z,69.55
2022-09-30T14:13:41.494Z,69.17
2022-09-30T14:16:46.048Z,71.58
2022-09-30T14:19:39.386Z,67.79
2022-09-30T14:22:10.586Z,67.84
2022-09-30T14:24:40.781Z,69.52
2022-09-30T14:27:27.537Z,69.58
2022-09-30T14:30:05.142Z,70.38
2022-09-30T14:32:38.122Z,68.04
2022-09-30T14:35:09.993Z,68.39
2022-09-30T14:37:48.659Z,70.42
2022-09-30T14:40:20.167Z,69.74
2022-09-30T14:42:50.033Z,68.42
2022-09-30T14:45:26.178Z,65.43
2022-09-30T14:47:58.282Z,90.51
2022-09-30T14:50:31.198Z,93.60
2022-09-30T14:53:03.594Z,88.89
2022-09-30T14:55:34.431Z,98.12
2022-09-30T14:58:28.674Z,102.49
2022-09-30T15:01:03.128Z,103.91
2022-09-30T15:03:33.642Z,105.43
2022-09-30T15:06:02.047Z,104.59
2022-09-30T15:08:31.771Z,105.24
2022-09-30T15:11:00.001Z,105.05
2022-09-30T15:13:31.862Z,106.66
2022-09-30T15:16:00.329Z,110.43
2022-09-30T15:18:32.383Z,108.24
2022-09-30T15:21:08.674Z,112.94
2022-09-30T15:23:41.880Z,112.77
2022-09-30T15:26:13.007Z,111.63
2022-09-30T15:28:41.450Z,110.65
2022-09-30T15:31:20.017Z,110.94
2022-09-30T15:33:48.309Z,110.22
2022-09-30T15:36:18.871Z,111.58
2022-09-30T15:38:52.330Z,112.16
2022-09-30T15:41:20.560Z,110.21
2022-09-30T15:43:51.705Z,112.48
2022-09-30T15:46:31.987Z,112.23
2022-09-30T15:49:02.716Z,112.43
2022-09-30T15:51:37.008Z,115.40
2022-09-30T15:54:32.943Z,115.07
2022-09-30T15:57:03.364Z,113.92
2022-09-30T16:00:01.943Z,114.60
2022-09-30T16:02:32.696Z,115.25
2022-09-30T16:05:03.424Z,115.19
2022-09-30T16:07:33.126Z,115.09
2022-09-30T16:10:02.742Z,112.58
2022-09-30T16:12:34.770Z,116.12
2022-09-30T16:15:09.931Z,113.29
2022-09-30T16:17:40.784Z,115.25
2022-09-30T16:20:22.861Z,117.30
2022-09-30T16:22:54.941Z,114.92
2022-09-30T16:25:28.241Z,116.47
2022-09-30T16:27:59.698Z,111.96
2022-09-30T16:30:29.231Z,110.61
2022-09-30T16:33:00.687Z,111.58
2022-09-30T16:35:29.891Z,116.00
2022-09-30T16:38:02.904Z,113.06
2022-09-30T16:40:35.413Z,114.50
2022-09-30T16:43:07.494Z,113.96
2022-09-30T16:45:36.641Z,112.55
2022-09-30T16:48:15.204Z,110.20
2022-09-30T16:50:48.059Z,111.94
2022-09-30T16:53:16.319Z,115.86
2022-09-30T16:55:45.922Z,113.65
2022-09-30T16:58:14.762Z,113.60
2022-09-30T17:00:45.422Z,109.69
2022-09-30T17:03:15.062Z,114.78
2022-09-30T17:05:45.014Z,111.97
2022-09-30T17:08:15.099Z,115.11
2022-09-30T17:10:46.806Z,110.85
2022-09-30T17:13:16.281Z,112.05
2022-09-30T17:15:48.910Z,113.64
2022-09-30T17:18:17.535Z,115.73
2022-09-30T17:20:52.481Z,105.43
2022-09-30T17:23:21.543Z,114.82
2022-09-30T17:25:51.323Z,112.21
2022-09-30T17:28:19.859Z,111.72
2022-09-30T17:30:50.312Z,112.86
2022-09-30T17:33:19.763Z,106.37
2022-09-30T17:36:00.306Z,111.77
2022-09-30T17:38:28.814Z,114.97
2022-09-30T17:41:16.110Z,114.61
2022-09-30T17:43:45.547Z,110.65
2022-09-30T17:46:16.331Z,113.67
2022-09-30T17:48:45.582Z,115.29
2022-09-30T17:51:14.824Z,112.59
2022-09-30T17:53:43.077Z,114.73
2022-09-30T17:56:19.432Z,113.54
2022-09-30T17:58:50.665Z,114.31
2022-09-30T18:01:21.381Z,115.08
2022-09-30T18:03:53.064Z,112.29
2022-09-30T18:06:21.838Z,111.32
2022-09-30T18:08:50.295Z,111.21
2022-09-30T18:11:22.854Z,114.76
2022-09-30T18:13:59.451Z,115.34
2022-09-30T18:16:30.410Z,113.93
2022-09-30T18:19:00.434Z,114.40
2022-09-30T18:21:30.036Z,113.07
2022-09-30T18:23:59.026Z,110.64
2022-09-30T18:26:33.331Z,113.42
2022-09-30T18:29:03.556Z,114.45
2022-09-30T18:31:37.338Z,111.42
2022-09-30T18:34:07.401Z,114.23
2022-09-30T18:36:37.395Z,114.20
2022-09-30T18:39:05.974Z,109.06
2022-09-30T18:41:37.405Z,109.61
2022-09-30T18:44:07.166Z,109.94
2022-09-30T18:46:36.104Z,106.66
2022-09-30T18:49:05.550Z,112.05
2022-09-30T18:51:33.898Z,110.04
2022-09-30T18:54:04.055Z,112.12
2022-09-30T18:56:33.676Z,110.13
2022-09-30T18:59:05.279Z,112.37
2022-09-30T19:01:34.822Z,111.92
2022-09-30T19:04:04.126Z,110.88
2022-09-30T19:06:32.719Z,112.42
2022-09-30T19:09:00.955Z,109.70
2022-09-30T19:11:30.703Z,109.04
2022-09-30T19:14:01.439Z,110.06
2022-09-30T19:16:36.584Z,112.83
2022-09-30T19:19:08.287Z,110.77
2022-09-30T19:21:37.157Z,110.55
2022-09-30T19:24:06.892Z,105.99
2022-09-30T19:26:37.660Z,109.84
2022-09-30T19:29:07.925Z,106.56
2022-09-30T19:31:38.186Z,111.54
2022-09-30T19:34:07.225Z,107.47
2022-09-30T19:36:47.319Z,108.10
2022-09-30T19:39:18.803Z,110.93
2022-09-30T19:41:47.305Z,111.95
2022-09-30T19:44:18.801Z,112.13
2022-09-30T19:46:49.745Z,111.52
2022-09-30T19:49:18.645Z,112.47
2022-09-30T19:51:46.854Z,113.64
2022-09-30T19:54:14.996Z,113.91
2022-09-30T19:56:43.255Z,110.94
2022-09-30T19:59:11.831Z,114.62
2022-09-30T20:01:40.232Z,113.10
2022-09-30T20:04:10.732Z,114.11
2022-09-30T20:06:39.059Z,111.08
2022-09-30T20:09:08.728Z,113.15
2022-09-30T20:11:38.297Z,115.13
2022-09-30T20:14:25.907Z,110.94
2022-09-30T20:16:54.596Z,112.47
2022-09-30T20:19:24.419Z,114.59
2022-09-30T20:21:55.000Z,114.90
2022-09-30T20:24:23.552Z,115.27
2022-09-30T20:26:52.522Z,115.57
2022-09-30T20:29:21.076Z,115.51
2022-09-30T20:31:50.560Z,112.26
2022-09-30T20:34:20.282Z,113.03
2022-09-30T20:36:49.869Z,111.14
2022-09-30T20:39:18.017Z,110.68
2022-09-30T20:41:48.034Z,108.65
2022-09-30T20:44:19.808Z,107.12
2022-09-30T20:46:48.083Z,102.14
2022-09-30T20:49:16.331Z,99.66
2022-09-30T20:51:44.461Z,89.60
2022-09-30T20:54:14.180Z,88.38
2022-09-30T20:57:05.971Z,81.84
2022-09-30T20:59:30.654Z,80.72
2022-09-30T21:01:58.897Z,80.24
2022-09-30T21:04:27.189Z,80.42
2022-09-30T21:06:55.393Z,80.13
2022-09-30T21:09:24.918Z,80.11
2022-09-30T21:11:53.238Z,80.45
2022-09-30T21:14:21.586Z,80.30
2022-09-30T21:16:49.792Z,80.19
2022-09-30T21:19:18.878Z,80.90
2022-09-30T21:21:47.108Z,80.90
2022-09-30T21:24:16.541Z,80.74
2022-09-30T21:26:46.120Z,80.79
2022-09-30T21:29:14.305Z,80.64
2022-09-30T21:31:42.643Z,81.43
2022-09-30T21:34:14.707Z,81.86
2022-09-30T21:36:45.277Z,83.04
2022-09-30T21:39:13.753Z,84.22
2022-09-30T21:41:42.477Z,84.27
2022-09-30T21:44:12.035Z,83.63
2022-09-30T21:46:43.661Z,84.33
2022-09-30T21:49:19.250Z,84.35
2022-09-30T21:51:47.738Z,84.39
2022-09-30T21:54:16.500Z,83.22
2022-09-30T21:56:45.017Z,83.19
2022-09-30T21:59:14.840Z,83.09
2022-09-30T22:01:46.419Z,83.73
2022-09-30T22:04:14.610Z,84.26
2022-09-30T22:06:42.790Z,83.65
2022-09-30T22:09:12.143Z,84.02
2022-09-30T22:11:41.552Z,84.66
2022-09-30T22:14:11.234Z,84.82
2022-09-30T22:16:40.828Z,85.15
2022-09-30T22:19:10.024Z,85.21
2022-09-30T22:21:39.177Z,85.56
2022-09-30T22:24:09.169Z,86.21
2022-09-30T22:26:38.268Z,86.19
2022-09-30T22:29:08.751Z,85.13
2022-09-30T22:31:37.438Z,85.42
2022-09-30T22:34:25.812Z,85.23
2022-09-30T22:37:11.575Z,86.16
2022-09-30T22:39:39.737Z,85.87
2022-09-30T22:42:08.361Z,85.61
2022-09-30T22:44:39.255Z,85.55
2022-09-30T22:47:09.717Z,85.45
2022-09-30T22:49:39.370Z,86.15
2022-09-30T22:52:07.557Z,86.48
2022-09-30T22:54:37.550Z,86.64
2022-09-30T22:57:07.956Z,86.41
2022-09-30T22:59:37.260Z,87.20
2022-09-30T23:02:06.080Z,87.33
2022-09-30T23:04:35.116Z,87.32
2022-09-30T23:07:07.689Z,87.14
2022-09-30T23:09:35.984Z,86.82
2022-09-30T23:12:05.224Z,86.59
2022-09-30T23:14:33.373Z,86.37
2022-09-30T23:17:01.457Z,86.67
2022-09-30T23:19:29.570Z,87.41
2022-09-30T23:21:57.834Z,87.23
2022-09-30T23:24:31.608Z,87.36
2022-09-30T23:27:00.422Z,87.01
2022-09-30T23:29:28.656Z,86.16
2022-09-30T23:31:56.825Z,86.86
2022-09-30T23:34:25.119Z,87.19
2022-09-30T23:36:53.227Z,86.99
2022-09-30T23:39:21.865Z,87.13
2022-09-30T23:41:51.829Z,87.41
2022-09-30T23:44:20.334Z,87.76
2022-09-30T23:47:02.872Z,87.70
2022-09-30T23:49:35.846Z,87.25
2022-09-30T23:52:09.188Z,87.25
2022-09-30T23:54:40.223Z,86.93
2022-09-30T23:57:11.188Z,87.31
2022-09-30T23:59:39.583Z,86.68
